createdAt,value
2018-04-25T00:01:18.431Z,9.50
2018-04-25T00:03:47.597Z,9.48
2018-04-25T00:06:17.578Z,9.49
2018-04-25T00:08:46.633Z,9.55
2018-04-25T00:11:15.910Z,9.58
2018-04-25T00:13:45.893Z,9.61
2018-04-25T00:16:14.947Z,9.69
2018-04-25T00:18:45.955Z,9.78
2018-04-25T00:21:16.033Z,9.96
2018-04-25T00:26:21.293Z,10.14
2018-04-25T00:28:57.309Z,10.23
2018-04-25T00:31:26.518Z,10.14
2018-04-25T00:33:55.581Z,10.19
2018-04-25T00:36:24.671Z,10.07
2018-04-25T00:41:32.930Z,10.12
2018-04-25T00:44:01.986Z,9.97
2018-04-25T00:46:31.074Z,9.92
2018-04-25T00:49:00.170Z,9.91
2018-04-25T00:51:29.224Z,9.92
2018-04-25T00:53:58.293Z,9.87
2018-04-25T00:56:27.321Z,9.86
2018-04-25T00:58:56.395Z,9.80
2018-04-25T01:01:26.345Z,9.75
2018-04-25T01:03:55.598Z,9.82
2018-04-25T01:06:24.662Z,9.73
2018-04-25T01:08:53.698Z,9.68
2018-04-25T01:11:23.640Z,9.70
2018-04-25T01:13:52.714Z,9.67
2018-04-25T01:16:21.802Z,9.80
2018-04-25T01:18:50.940Z,9.90
2018-04-25T01:21:19.978Z,9.82
2018-04-25T01:23:49.023Z,9.76
2018-04-25T01:26:18.181Z,9.75
2018-04-25T01:34:26.922Z,10.39
2018-04-25T01:37:08.306Z,10.38
2018-04-25T01:44:53.086Z,10.40
2018-04-25T01:50:37.041Z,10.31
2018-04-25T01:53:26.262Z,10.31
2018-04-25T02:01:20.349Z,10.44
2018-04-25T02:06:32.945Z,10.50
2018-04-25T02:09:01.974Z,10.38
2018-04-25T02:11:31.018Z,10.26
2018-04-25T02:14:00.068Z,10.22
2018-04-25T02:16:29.123Z,10.23
2018-04-25T02:18:58.173Z,10.17
2018-04-25T02:21:27.229Z,10.17
2018-04-25T02:23:56.281Z,10.14
2018-04-25T02:26:25.340Z,10.13
2018-04-25T02:28:54.391Z,10.22
2018-04-25T02:31:23.426Z,10.14
2018-04-25T02:33:52.481Z,10.07
2018-04-25T02:36:21.599Z,10.13
2018-04-25T02:38:51.725Z,10.21
2018-04-25T02:41:20.804Z,10.08
2018-04-25T02:43:49.837Z,10.02
2018-04-25T02:46:18.976Z,10.06
2018-04-25T02:48:48.088Z,10.03
2018-04-25T02:56:39.974Z,10.26
2018-04-25T02:59:09.018Z,10.37
2018-04-25T03:01:38.073Z,10.48
2018-04-25T03:04:07.305Z,10.50
2018-04-25T03:06:36.350Z,10.58
2018-04-25T03:09:05.451Z,10.59
2018-04-25T03:11:34.531Z,10.68
2018-04-25T03:14:03.588Z,10.75
2018-04-25T03:16:32.701Z,10.85
2018-04-25T03:19:01.749Z,10.80
2018-04-25T03:21:30.801Z,10.72
2018-04-25T03:23:59.864Z,10.62
2018-04-25T03:26:28.923Z,10.52
2018-04-25T03:28:57.984Z,10.42
2018-04-25T03:31:27.079Z,10.32
2018-04-25T03:33:56.101Z,10.37
2018-04-25T03:36:25.147Z,10.24
2018-04-25T03:38:54.290Z,10.13
2018-04-25T03:41:23.351Z,10.22
2018-04-25T03:43:52.396Z,10.30
2018-04-25T03:46:21.445Z,10.36
2018-04-25T03:48:50.492Z,10.33
2018-04-25T03:51:19.537Z,10.35
2018-04-25T03:53:48.692Z,10.37
2018-04-25T03:56:17.725Z,10.42
2018-04-25T04:01:22.466Z,10.50
2018-04-25T04:03:51.531Z,10.51
2018-04-25T04:06:20.681Z,10.41
2018-04-25T04:08:49.750Z,10.38
2018-04-25T04:11:18.808Z,10.54
2018-04-25T04:13:48.954Z,10.52
2018-04-25T04:16:18.324Z,10.44
2018-04-25T04:18:50.304Z,10.40
2018-04-25T04:21:19.366Z,10.41
2018-04-25T04:26:24.186Z,10.69
2018-04-25T04:28:54.264Z,10.97
2018-04-25T04:31:23.544Z,11.12
2018-04-25T04:33:52.665Z,11.35
2018-04-25T04:36:21.728Z,11.35
2018-04-25T04:38:51.917Z,11.41
2018-04-25T04:41:28.171Z,11.47
2018-04-25T04:43:58.372Z,11.57
2018-04-25T04:46:27.437Z,11.63
2018-04-25T04:48:57.411Z,11.67
2018-04-25T04:51:26.884Z,11.64
2018-04-25T04:53:57.590Z,11.65
2018-04-25T04:56:26.660Z,11.62
2018-04-25T04:58:55.731Z,11.56
2018-04-25T05:01:24.807Z,11.52
2018-04-25T05:03:54.782Z,11.54
2018-04-25T05:06:24.091Z,11.56
2018-04-25T05:08:53.147Z,11.64
2018-04-25T05:11:22.299Z,11.75
2018-04-25T05:13:51.737Z,11.98
2018-04-25T05:16:20.799Z,12.09
2018-04-25T05:18:50.396Z,12.21
2018-04-25T05:21:20.887Z,12.39
2018-04-25T05:26:27.940Z,12.74
2018-04-25T05:28:57.377Z,12.87
2018-04-25T05:31:26.432Z,12.97
2018-04-25T05:33:56.105Z,13.09
2018-04-25T05:36:25.270Z,13.21
2018-04-25T05:38:54.337Z,13.36
2018-04-25T05:41:23.692Z,13.50
2018-04-25T05:43:52.725Z,13.70
2018-04-25T05:46:22.223Z,13.92
2018-04-25T05:48:51.298Z,14.15
2018-04-25T05:51:20.347Z,14.33
2018-04-25T05:56:25.705Z,14.61
2018-04-25T05:58:54.771Z,14.71
2018-04-25T06:01:23.816Z,14.79
2018-04-25T06:06:28.585Z,15.10
2018-04-25T06:08:58.997Z,15.24
2018-04-25T06:11:28.064Z,15.43
2018-04-25T06:13:57.507Z,15.56
2018-04-25T06:16:26.554Z,15.64
2018-04-25T06:18:55.618Z,15.84
2018-04-25T06:21:25.589Z,15.99
2018-04-25T06:23:54.649Z,16.25
2018-04-25T06:26:23.694Z,16.40
2018-04-25T06:28:52.896Z,16.54
2018-04-25T06:31:21.938Z,16.64
2018-04-25T06:33:51.020Z,16.81
2018-04-25T06:38:55.802Z,17.06
2018-04-25T06:41:25.792Z,17.08
2018-04-25T06:43:55.028Z,17.20
2018-04-25T06:46:24.110Z,17.24
2018-04-25T06:48:53.241Z,17.36
2018-04-25T06:51:22.586Z,17.40
2018-04-25T06:53:51.614Z,17.47
2018-04-25T06:56:21.624Z,17.60
2018-04-25T06:58:50.657Z,17.81
2018-04-25T07:01:21.659Z,17.92
2018-04-25T07:06:26.435Z,18.26
2018-04-25T07:09:05.582Z,18.34
2018-04-25T07:11:35.811Z,18.38
2018-04-25T07:14:05.320Z,18.45
2018-04-25T07:16:34.758Z,18.68
2018-04-25T07:19:03.802Z,18.69
2018-04-25T07:21:33.269Z,18.84
2018-04-25T07:24:02.367Z,18.78
2018-04-25T07:26:32.303Z,18.94
2018-04-25T07:29:01.356Z,19.12
2018-04-25T07:31:30.918Z,19.08
2018-04-25T07:33:59.971Z,19.18
2018-04-25T07:36:29.778Z,19.26
2018-04-25T07:38:58.826Z,19.47
2018-04-25T07:41:27.878Z,19.51
2018-04-25T07:43:57.093Z,19.57
2018-04-25T07:46:26.118Z,19.67
2018-04-25T07:48:55.315Z,19.79
2018-04-25T07:51:24.364Z,20.07
2018-04-25T07:56:29.215Z,20.11
2018-04-25T07:58:58.266Z,20.29
2018-04-25T08:04:03.052Z,21.21
2018-04-25T08:06:32.670Z,21.64
2018-04-25T08:09:01.762Z,21.67
2018-04-25T08:14:24.361Z,21.57
2018-04-25T08:23:04.983Z,22.47
2018-04-25T08:28:09.965Z,22.69
2018-04-25T08:30:40.425Z,22.22
2018-04-25T08:33:19.182Z,21.86
2018-04-25T08:35:48.996Z,22.47
2018-04-25T08:38:18.050Z,22.54
2018-04-25T08:40:47.766Z,22.48
2018-04-25T08:43:16.878Z,22.48
2018-04-25T08:45:46.619Z,22.44
2018-04-25T08:48:15.796Z,22.59
2018-04-25T08:50:45.421Z,22.61
2018-04-25T08:53:15.440Z,22.69
2018-04-25T08:55:44.500Z,22.99
2018-04-25T08:58:15.034Z,23.16
2018-04-25T09:00:44.071Z,23.17
2018-04-25T09:03:15.512Z,23.18
2018-04-25T09:05:45.622Z,24.06
2018-04-25T09:08:14.660Z,24.52
2018-04-25T09:13:20.406Z,23.81
2018-04-25T09:18:25.199Z,23.28
2018-04-25T09:20:54.886Z,23.04
2018-04-25T09:26:00.248Z,23.52
2018-04-25T09:28:29.302Z,23.70
2018-04-25T09:30:58.856Z,23.98
2018-04-25T09:33:27.910Z,23.59
2018-04-25T09:36:05.147Z,23.32
2018-04-25T09:38:37.338Z,24.08
2018-04-25T09:41:06.796Z,24.47
2018-04-25T09:43:35.837Z,24.90
2018-04-25T09:46:04.964Z,24.94
2018-04-25T09:48:34.070Z,25.20
2018-04-25T09:51:03.098Z,24.38
2018-04-25T09:53:32.533Z,23.74
2018-04-25T09:56:01.620Z,24.28
2018-04-25T09:58:31.023Z,23.48
2018-04-25T10:01:00.072Z,22.87
2018-04-25T10:03:30.319Z,23.36
2018-04-25T10:05:59.374Z,22.93
2018-04-25T10:08:28.435Z,23.25
2018-04-25T10:10:57.589Z,23.93
2018-04-25T10:13:26.541Z,24.82
2018-04-25T10:15:56.777Z,25.66
2018-04-25T10:18:25.837Z,25.04
2018-04-25T10:20:55.321Z,24.96
2018-04-25T10:23:24.379Z,25.92
2018-04-25T10:25:53.721Z,25.18
2018-04-25T10:28:22.753Z,24.42
2018-04-25T10:30:52.404Z,24.17
2018-04-25T10:35:57.279Z,24.69
2018-04-25T10:38:26.324Z,25.68
2018-04-25T10:40:55.387Z,25.75
2018-04-25T10:43:24.453Z,25.51
2018-04-25T10:48:29.877Z,24.66
2018-04-25T10:50:58.945Z,23.96
2018-04-25T10:53:28.271Z,24.73
2018-04-25T10:55:57.325Z,25.24
2018-04-25T10:58:27.012Z,25.90
2018-04-25T11:00:56.473Z,26.40
2018-04-25T11:03:26.318Z,26.31
2018-04-25T11:05:55.362Z,25.53
2018-04-25T11:08:24.476Z,25.85
2018-04-25T11:10:53.507Z,26.54
2018-04-25T11:15:58.331Z,27.41
2018-04-25T11:18:27.922Z,28.78
2018-04-25T11:21:05.515Z,27.33
2018-04-25T11:23:35.450Z,26.39
2018-04-25T11:26:04.498Z,24.55
2018-04-25T11:28:34.131Z,24.63
2018-04-25T11:31:03.189Z,25.32
2018-04-25T11:33:32.834Z,25.98
2018-04-25T11:36:01.897Z,26.97
2018-04-25T11:38:30.935Z,26.16
2018-04-25T11:41:00.416Z,26.76
2018-04-25T11:43:29.505Z,27.18
2018-04-25T11:45:59.017Z,26.44
2018-04-25T11:48:28.162Z,26.18
2018-04-25T11:50:57.335Z,26.46
2018-04-25T11:53:26.409Z,27.28
2018-04-25T11:55:55.463Z,27.31
2018-04-25T11:58:24.537Z,26.71
2018-04-25T12:03:29.327Z,26.76
2018-04-25T12:05:59.566Z,26.96
2018-04-25T12:08:28.624Z,26.10
2018-04-25T12:10:57.674Z,26.70
2018-04-25T12:13:27.497Z,26.97
2018-04-25T12:15:56.589Z,26.21
2018-04-25T12:18:26.102Z,26.59
2018-04-25T12:20:55.161Z,25.65
2018-04-25T12:23:24.224Z,26.77
2018-04-25T12:25:54.741Z,26.81
2018-04-25T12:31:00.282Z,27.53
2018-04-25T12:33:29.909Z,27.19
2018-04-25T12:35:58.968Z,26.89
2018-04-25T12:38:28.014Z,27.00
2018-04-25T12:40:58.368Z,26.96
2018-04-25T12:43:27.502Z,26.78
2018-04-25T12:45:57.195Z,27.56
2018-04-25T12:51:02.149Z,27.73
2018-04-25T12:53:31.190Z,26.80
2018-04-25T12:56:00.254Z,25.92
2018-04-25T12:58:29.300Z,27.16
2018-04-25T13:00:59.255Z,27.13
2018-04-25T13:06:04.638Z,27.73
2018-04-25T13:08:33.653Z,26.39
2018-04-25T13:11:05.522Z,25.85
2018-04-25T13:13:34.761Z,26.76
2018-04-25T13:16:03.876Z,27.37
2018-04-25T13:18:32.969Z,27.62
2018-04-25T13:21:02.437Z,25.97
2018-04-25T13:23:31.479Z,26.93
2018-04-25T13:26:00.526Z,26.69
2018-04-25T13:28:30.313Z,26.48
2018-04-25T13:30:59.361Z,27.45
2018-04-25T13:33:28.410Z,27.10
2018-04-25T13:35:57.648Z,26.61
2018-04-25T13:38:26.720Z,27.51
2018-04-25T13:40:56.677Z,26.88
2018-04-25T13:43:25.741Z,26.98
2018-04-25T13:45:54.787Z,26.30
2018-04-25T13:48:23.844Z,25.11
2018-04-25T13:53:34.600Z,25.23
2018-04-25T13:56:06.775Z,26.04
2018-04-25T14:01:11.913Z,25.80
2018-04-25T14:03:40.990Z,25.35
2018-04-25T14:06:10.047Z,26.50
2018-04-25T14:08:39.642Z,26.78
2018-04-25T14:11:08.694Z,24.68
2018-04-25T14:13:37.750Z,24.61
2018-04-25T14:16:06.812Z,26.05
2018-04-25T14:18:35.858Z,26.86
2018-04-25T14:21:04.919Z,27.25
2018-04-25T14:23:34.904Z,26.22
2018-04-25T14:26:03.995Z,26.33
2018-04-25T14:28:33.629Z,26.15
2018-04-25T14:31:02.687Z,25.70
2018-04-25T14:33:31.750Z,26.76
2018-04-25T14:36:00.857Z,26.73
2018-04-25T14:38:29.926Z,25.88
2018-04-25T14:40:59.909Z,26.00
2018-04-25T14:43:28.975Z,27.04
2018-04-25T14:45:58.014Z,27.28
2018-04-25T14:48:27.204Z,26.79
2018-04-25T14:50:56.238Z,26.44
2018-04-25T14:56:01.495Z,27.31
2018-04-25T14:58:30.609Z,27.93
2018-04-25T15:00:59.679Z,28.57
2018-04-25T15:03:29.307Z,28.10
2018-04-25T15:05:58.373Z,27.04
2018-04-25T15:08:28.027Z,26.98
2018-04-25T15:10:57.109Z,27.83
2018-04-25T15:13:26.166Z,28.06
2018-04-25T15:15:55.638Z,27.94
2018-04-25T15:18:24.673Z,28.66
2018-04-25T15:20:53.746Z,29.43
2018-04-25T15:23:22.944Z,28.49
2018-04-25T15:25:51.974Z,28.47
2018-04-25T15:30:57.291Z,26.22
2018-04-25T15:33:26.355Z,25.33
2018-04-25T15:35:55.396Z,26.17
2018-04-25T15:38:24.917Z,26.39
2018-04-25T15:40:53.958Z,27.13
2018-04-25T15:43:23.460Z,26.63
2018-04-25T15:48:28.815Z,25.78
2018-04-25T15:50:57.892Z,26.63
2018-04-25T15:53:26.946Z,26.54
2018-04-25T15:55:56.254Z,26.57
2018-04-25T15:58:25.312Z,27.15
2018-04-25T16:00:54.351Z,27.34
2018-04-25T16:03:23.397Z,27.29
2018-04-25T16:05:52.470Z,26.88
2018-04-25T16:08:21.514Z,27.24
2018-04-25T16:10:50.981Z,28.05
2018-04-25T16:13:20.296Z,27.13
2018-04-25T16:15:49.422Z,26.25
2018-04-25T16:18:18.924Z,25.13
2018-04-25T16:20:47.966Z,24.63
2018-04-25T16:23:17.028Z,24.24
2018-04-25T16:25:46.857Z,23.82
2018-04-25T16:28:15.913Z,23.75
2018-04-25T16:30:44.980Z,23.47
2018-04-25T16:33:14.145Z,23.08
2018-04-25T16:38:18.930Z,22.98
2018-04-25T16:40:48.490Z,22.80
2018-04-25T16:43:17.518Z,22.53
2018-04-25T16:48:22.355Z,22.22
2018-04-25T16:50:51.418Z,22.08
2018-04-25T16:53:21.165Z,21.97
2018-04-25T16:55:50.224Z,22.09
2018-04-25T16:58:19.279Z,22.15
2018-04-25T17:03:24.652Z,22.46
2018-04-25T17:08:29.922Z,22.19
2018-04-25T17:10:58.999Z,22.18
2018-04-25T17:13:28.583Z,22.10
2018-04-25T17:15:57.650Z,21.98
2018-04-25T17:18:26.711Z,21.78
2018-04-25T17:20:55.746Z,21.66
2018-04-25T17:26:02.070Z,21.49
2018-04-25T17:28:31.122Z,21.27
2018-04-25T17:31:00.174Z,21.15
2018-04-25T17:33:29.629Z,21.13
2018-04-25T17:35:58.685Z,20.79
2018-04-25T17:38:28.702Z,20.36
2018-04-25T17:40:58.276Z,20.25
2018-04-25T17:43:27.440Z,20.37
2018-04-25T17:45:56.479Z,20.50
2018-04-25T17:48:25.630Z,20.53
2018-04-25T17:50:54.691Z,20.61
2018-04-25T17:53:23.734Z,20.55
2018-04-25T17:55:53.072Z,20.44
2018-04-25T17:58:22.114Z,20.21
2018-04-25T18:01:00.770Z,20.13
2018-04-25T18:03:29.880Z,19.87
2018-04-25T18:05:58.926Z,19.90
2018-04-25T18:11:04.717Z,19.50
2018-04-25T18:13:33.834Z,19.26
2018-04-25T18:16:03.182Z,19.22
2018-04-25T18:18:35.629Z,19.04
2018-04-25T18:21:04.755Z,18.90
2018-04-25T18:23:33.797Z,18.81
2018-04-25T18:26:03.737Z,18.73
2018-04-25T18:28:33.776Z,18.75
2018-04-25T18:31:03.733Z,18.78
2018-04-25T18:33:32.987Z,18.78
2018-04-25T18:36:02.015Z,18.58
2018-04-25T18:38:31.080Z,18.59
2018-04-25T18:41:00.129Z,18.34
2018-04-25T18:43:29.350Z,18.33
2018-04-25T18:45:58.393Z,18.27
2018-04-25T18:48:27.523Z,18.21
2018-04-25T18:50:56.676Z,18.23
2018-04-25T18:53:25.735Z,18.30
2018-04-25T18:55:54.804Z,18.35
2018-04-25T18:58:23.858Z,18.29
2018-04-25T19:00:52.930Z,18.28
2018-04-25T19:03:21.984Z,18.34
2018-04-25T19:05:51.240Z,18.04
2018-04-25T19:08:20.297Z,18.01
2018-04-25T19:10:50.245Z,17.97
2018-04-25T19:13:19.340Z,17.97
2018-04-25T19:15:48.410Z,18.05
2018-04-25T19:18:17.474Z,18.05
2018-04-25T19:20:46.549Z,17.98
2018-04-25T19:23:15.598Z,17.84
2018-04-25T19:25:44.982Z,17.76
2018-04-25T19:28:14.063Z,17.57
2018-04-25T19:33:18.404Z,17.47
2018-04-25T19:35:47.496Z,17.40
2018-04-25T19:38:16.560Z,17.38
2018-04-25T19:40:45.822Z,17.39
2018-04-25T19:43:14.981Z,17.33
2018-04-25T19:45:44.019Z,17.34
2018-04-25T19:48:13.242Z,17.32
2018-04-25T19:50:42.466Z,17.24
2018-04-25T19:53:11.579Z,17.26
2018-04-25T19:55:40.772Z,17.29
2018-04-25T20:00:45.627Z,17.35
2018-04-25T20:03:14.802Z,17.39
2018-04-25T20:05:43.850Z,17.43
2018-04-25T20:08:12.889Z,17.41
2018-04-25T20:10:41.954Z,17.28
2018-04-25T20:13:11.110Z,17.19
2018-04-25T20:15:40.255Z,17.12
2018-04-25T20:18:09.502Z,17.05
2018-04-25T20:20:38.605Z,16.94
2018-04-25T20:23:07.674Z,16.97
2018-04-25T20:25:37.427Z,17.06
2018-04-25T20:28:06.858Z,17.15
2018-04-25T20:30:35.927Z,17.02
2018-04-25T20:33:04.979Z,17.01
2018-04-25T20:35:34.143Z,17.03
2018-04-25T20:38:03.208Z,16.97
2018-04-25T20:40:32.264Z,16.84
2018-04-25T20:45:37.073Z,16.83
2018-04-25T20:48:06.197Z,16.69
2018-04-25T20:50:35.382Z,16.64
2018-04-25T20:53:06.418Z,16.60
2018-04-25T20:55:35.471Z,16.66
2018-04-25T20:58:04.562Z,16.78
2018-04-25T21:00:33.623Z,16.61
2018-04-25T21:03:03.072Z,16.06
2018-04-25T21:05:32.120Z,15.59
2018-04-25T21:08:01.204Z,15.14
2018-04-25T21:10:30.333Z,15.12
2018-04-25T21:12:59.654Z,15.21
2018-04-25T21:15:34.562Z,15.28
2018-04-25T21:18:03.973Z,14.97
2018-04-25T21:20:33.041Z,14.80
2018-04-25T21:23:02.180Z,14.77
2018-04-25T21:25:31.234Z,14.71
2018-04-25T21:28:00.399Z,14.54
2018-04-25T21:33:05.273Z,14.53
2018-04-25T21:38:10.330Z,14.48
2018-04-25T21:40:39.402Z,14.40
2018-04-25T21:43:14.953Z,14.37
2018-04-25T21:45:44.112Z,14.35
2018-04-25T21:50:48.972Z,14.61
2018-04-25T21:53:18.309Z,14.50
2018-04-25T21:55:47.414Z,14.34
2018-04-25T21:58:16.455Z,14.34
2018-04-25T22:00:45.724Z,14.32
2018-04-25T22:03:29.103Z,14.41
2018-04-25T22:05:59.005Z,14.37
2018-04-25T22:08:28.059Z,14.32
2018-04-25T22:10:57.277Z,14.23
2018-04-25T22:13:26.352Z,14.13
2018-04-25T22:15:55.396Z,14.14
2018-04-25T22:18:24.492Z,14.16
2018-04-25T22:20:53.715Z,14.08
2018-04-25T22:23:26.203Z,14.02
2018-04-25T22:25:56.293Z,13.84
2018-04-25T22:28:25.355Z,13.87
2018-04-25T22:30:54.422Z,13.83
2018-04-25T22:33:23.486Z,13.84
2018-04-25T22:35:52.561Z,13.64
2018-04-25T22:38:21.645Z,13.63
2018-04-25T22:40:50.699Z,13.66
2018-04-25T22:43:19.791Z,13.89
2018-04-25T22:45:48.922Z,13.84
2018-04-25T22:50:53.762Z,14.07
2018-04-25T22:53:22.925Z,14.09
2018-04-25T22:55:51.990Z,14.18
2018-04-25T22:58:21.046Z,13.98
2018-04-25T23:00:50.424Z,13.90
2018-04-25T23:03:19.543Z,13.87
2018-04-25T23:05:48.641Z,13.87
2018-04-25T23:10:53.463Z,13.82
2018-04-25T23:13:22.557Z,13.73
2018-04-25T23:16:06.556Z,13.70
2018-04-25T23:18:36.380Z,13.54
2018-04-25T23:21:05.730Z,13.57
2018-04-25T23:23:34.804Z,13.43
2018-04-25T23:28:39.650Z,13.61
2018-04-25T23:31:08.761Z,13.63
2018-04-25T23:33:37.838Z,13.59
2018-04-25T23:36:06.906Z,13.38
2018-04-25T23:41:16.677Z,13.42
2018-04-25T23:43:45.967Z,13.48
2018-04-25T23:46:15.002Z,13.32
2018-04-25T23:51:20.829Z,13.37
2018-04-25T23:53:50.050Z,13.39
2018-04-25T23:58:55.433Z,13.51
